Oaktown, Indiana
Current Conditions -  °F | °C
As of 9:53 AM on Wednesday 22 Oct 2014 (Local Time) from KLWV Reporting Station
Clear Clear  
Wind Chill: 10°   Ceiling: Unl
Heat Index: 10°   Visibility: 10mi
Dew Point:   Wind: 6mph
Humidity: 68%   Direction: 70°ENE
Pressure: 30.34"   Gusts: NA
Location:  38.87°N, 87.44°W
Report Text: KLWV 221453Z AUTO 07005KT 10SM CLR 10/04 A3034 RMK AO2 SLP276 T01000044 51018
Loading
Personal Weather Stations






























Interactive Weather Map
Tropical Storm Tracking
New forecast layout! Learn more

10-Day Weather Forecast

Advertisements
Track Severe Weather on mobile